Terminal Aerodrome Forecast
Issued by NWS Tampa Bay Area, FL

Home | Current Version | Previous Version | Text Only | Print | Product List | Glossary On
Versions: 1 2 3 4 5 6 7 8 9 10 11 12 13 14 15
000
FTUS42 KTBW 271738
TAFSRQ
TAF
KSRQ 271738Z 2718/2818 25008KT P6SM FEW035 BKN200
     FM280000 31009KT P6SM VCSH SCT035 BKN100 BKN250
     FM280300 16005KT P6SM VCSH SCT050 BKN200
     FM280600 10004KT 6SM SHRA BKN035 BKN090 BKN250
     FM281200 04005KT 6SM SHRA BKN030 BKN090 BKN250
      TEMPO 2812/2816 4SM TSRA BKN025CB OVC060=

USA.gov is the U.S. government's official web portal to all federal, state and local government web resources and services.